createdAt,value
2018-08-10T00:00:30.479Z,25.90
2018-08-10T00:02:59.673Z,25.80
2018-08-10T00:05:28.471Z,25.80
2018-08-10T00:07:57.054Z,25.80
2018-08-10T00:10:25.648Z,25.80
2018-08-10T00:12:54.159Z,25.80
2018-08-10T00:15:22.785Z,25.80
2018-08-10T00:17:51.305Z,25.80
2018-08-10T00:20:20.024Z,25.80
2018-08-10T00:22:48.572Z,25.70
2018-08-10T00:25:18.938Z,25.70
2018-08-10T00:27:47.498Z,25.70
2018-08-10T00:30:18.020Z,25.60
2018-08-10T00:32:47.697Z,25.60
2018-08-10T00:35:16.441Z,25.50
2018-08-10T00:37:46.507Z,25.50
2018-08-10T00:40:17.739Z,25.50
2018-08-10T00:42:46.809Z,25.50
2018-08-10T00:45:16.229Z,25.50
2018-08-10T00:47:45.271Z,25.50
2018-08-10T00:50:15.259Z,25.40
2018-08-10T00:52:44.694Z,25.40
2018-08-10T00:55:14.891Z,25.40
2018-08-10T00:57:44.144Z,25.40
2018-08-10T01:00:15.472Z,25.40
2018-08-10T01:02:44.028Z,25.30
2018-08-10T01:05:13.204Z,25.30
2018-08-10T01:07:41.738Z,25.30
2018-08-10T01:10:14.173Z,25.20
2018-08-10T01:12:42.893Z,25.20
2018-08-10T01:15:13.389Z,25.20
2018-08-10T01:17:42.599Z,25.20
2018-08-10T01:20:18.609Z,25.20
2018-08-10T01:22:53.010Z,25.10
2018-08-10T01:25:23.146Z,25.20
2018-08-10T01:28:00.303Z,25.20
2018-08-10T01:30:30.302Z,25.20
2018-08-10T01:32:59.489Z,25.30
2018-08-10T01:35:28.812Z,25.20
2018-08-10T01:37:58.523Z,25.20
2018-08-10T01:40:27.475Z,25.20
2018-08-10T01:42:56.672Z,25.10
2018-08-10T01:45:25.233Z,25.10
2018-08-10T01:47:54.029Z,25.10
2018-08-10T01:50:22.704Z,25.10
2018-08-10T01:52:51.705Z,25.10
2018-08-10T01:55:20.603Z,25.20
2018-08-10T01:57:49.316Z,25.20
2018-08-10T02:00:17.912Z,25.20
2018-08-10T02:02:46.464Z,25.20
2018-08-10T02:05:15.935Z,25.20
2018-08-10T02:07:44.738Z,25.10
2018-08-10T02:10:15.143Z,25.20
2018-08-10T02:12:50.084Z,25.20
2018-08-10T02:15:18.763Z,25.20
2018-08-10T02:17:47.293Z,25.20
2018-08-10T02:20:17.414Z,25.30
2018-08-10T02:22:46.592Z,25.30
2018-08-10T02:25:16.661Z,25.30
2018-08-10T02:27:46.388Z,25.30
2018-08-10T02:30:16.337Z,25.30
2018-08-10T02:32:45.794Z,25.30
2018-08-10T02:35:14.399Z,25.30
2018-08-10T02:37:43.624Z,25.30
2018-08-10T02:40:17.785Z,25.30
2018-08-10T02:42:47.501Z,25.30
2018-08-10T02:45:16.659Z,25.30
2018-08-10T02:47:45.907Z,25.30
2018-08-10T02:50:15.240Z,25.30
2018-08-10T02:52:44.001Z,25.30
2018-08-10T02:55:13.104Z,25.40
2018-08-10T02:57:41.990Z,25.40
2018-08-10T03:00:13.204Z,25.40
2018-08-10T03:02:42.513Z,25.40
2018-08-10T03:05:11.657Z,25.40
2018-08-10T03:07:40.729Z,25.30
2018-08-10T03:10:11.001Z,25.30
2018-08-10T03:12:39.568Z,25.30
2018-08-10T03:15:11.792Z,25.30
2018-08-10T03:17:40.346Z,25.30
2018-08-10T03:20:09.336Z,25.20
2018-08-10T03:22:37.918Z,25.20
2018-08-10T03:25:07.425Z,25.20
2018-08-10T03:27:36.415Z,25.20
2018-08-10T03:30:06.795Z,25.20
2018-08-10T03:32:35.797Z,25.10
2018-08-10T03:35:04.456Z,25.10
2018-08-10T03:37:33.267Z,25.10
2018-08-10T03:40:01.833Z,25.10
2018-08-10T03:42:30.765Z,25.00
2018-08-10T03:44:59.278Z,25.10
2018-08-10T03:47:27.932Z,25.10
2018-08-10T03:49:56.563Z,25.10
2018-08-10T03:52:25.095Z,25.10
2018-08-10T03:54:53.738Z,25.10
2018-08-10T03:57:22.297Z,25.10
2018-08-10T03:59:51.009Z,25.10
2018-08-10T04:02:20.070Z,25.10
2018-08-10T04:04:48.751Z,25.00
2018-08-10T04:07:18.056Z,25.00
2018-08-10T04:09:46.595Z,25.00
2018-08-10T04:12:15.126Z,25.00
2018-08-10T04:14:43.652Z,25.00
2018-08-10T04:17:16.786Z,25.00
2018-08-10T04:19:45.292Z,25.00
2018-08-10T04:22:14.026Z,25.00
2018-08-10T04:24:43.252Z,25.00
2018-08-10T04:27:11.805Z,25.00
2018-08-10T04:29:40.480Z,25.00
2018-08-10T04:32:09.377Z,25.00
2018-08-10T04:34:37.935Z,25.00
2018-08-10T04:37:07.138Z,25.00
2018-08-10T04:39:35.997Z,25.00
2018-08-10T04:42:04.593Z,25.00
2018-08-10T04:44:33.193Z,25.00
2018-08-10T04:47:01.717Z,25.00
2018-08-10T04:49:30.281Z,25.00
2018-08-10T04:51:58.840Z,25.00
2018-08-10T04:54:27.422Z,25.00
2018-08-10T04:56:56.050Z,25.00
2018-08-10T04:59:24.678Z,25.00
2018-08-10T05:01:53.284Z,25.00
2018-08-10T05:04:21.828Z,24.90
2018-08-10T05:06:50.552Z,24.90
2018-08-10T05:09:19.173Z,24.90
2018-08-10T05:11:47.730Z,24.90
2018-08-10T05:14:16.329Z,24.90
2018-08-10T05:16:44.873Z,24.80
2018-08-10T05:19:14.083Z,24.80
2018-08-10T05:21:42.640Z,24.80
2018-08-10T05:24:11.498Z,24.80
2018-08-10T05:26:40.079Z,24.70
2018-08-10T05:29:08.635Z,24.60
2018-08-10T05:31:37.255Z,24.60
2018-08-10T05:34:05.891Z,24.60
2018-08-10T05:36:34.492Z,24.60
2018-08-10T05:39:03.159Z,24.70
2018-08-10T05:41:31.737Z,24.60
2018-08-10T05:44:00.341Z,24.60
2018-08-10T05:46:28.876Z,24.60
2018-08-10T05:48:57.988Z,24.60
2018-08-10T05:51:26.513Z,24.50
2018-08-10T05:53:55.032Z,24.50
2018-08-10T05:56:23.692Z,24.50
2018-08-10T05:58:52.258Z,24.40
2018-08-10T06:01:20.759Z,24.40
2018-08-10T06:03:49.423Z,24.50
2018-08-10T06:06:18.017Z,24.50
2018-08-10T06:08:47.086Z,24.50
2018-08-10T06:11:15.602Z,24.50
2018-08-10T06:13:44.151Z,24.40
2018-08-10T06:16:12.993Z,24.40
2018-08-10T06:18:41.541Z,24.40
2018-08-10T06:21:10.384Z,24.30
2018-08-10T06:23:39.050Z,24.30
2018-08-10T06:26:07.623Z,24.20
2018-08-10T06:28:36.146Z,24.20
2018-08-10T06:31:04.785Z,24.20
2018-08-10T06:33:33.461Z,24.20
2018-08-10T06:36:02.003Z,24.20
2018-08-10T06:38:30.521Z,24.20
2018-08-10T06:40:59.183Z,24.20
2018-08-10T06:43:28.308Z,24.30
2018-08-10T06:45:57.796Z,24.30
2018-08-10T06:48:26.342Z,24.20
2018-08-10T06:50:54.891Z,24.30
2018-08-10T06:53:23.801Z,24.30
2018-08-10T06:55:52.378Z,24.30
2018-08-10T06:58:20.857Z,24.40
2018-08-10T07:00:49.456Z,24.50
2018-08-10T07:03:18.071Z,24.50
2018-08-10T07:05:46.935Z,24.60
2018-08-10T07:08:15.524Z,24.70
2018-08-10T07:10:44.089Z,24.80
2018-08-10T07:13:12.598Z,24.90
2018-08-10T07:15:41.195Z,24.90
2018-08-10T07:18:09.701Z,25.10
2018-08-10T07:20:38.296Z,25.20
2018-08-10T07:23:07.573Z,25.20
2018-08-10T07:25:36.180Z,25.30
2018-08-10T07:28:04.738Z,25.30
2018-08-10T07:30:33.300Z,25.20
2018-08-10T07:33:01.851Z,25.20
2018-08-10T07:35:30.395Z,25.20
2018-08-10T07:37:58.875Z,25.20
2018-08-10T07:40:27.596Z,25.20
2018-08-10T07:42:56.104Z,25.20
2018-08-10T07:45:24.657Z,25.20
2018-08-10T07:47:53.161Z,25.20
2018-08-10T07:50:21.708Z,25.20
2018-08-10T07:52:50.257Z,25.30
2018-08-10T07:55:18.817Z,25.30
2018-08-10T07:57:47.342Z,25.30
2018-08-10T08:00:16.057Z,25.30
2018-08-10T08:02:44.689Z,25.30
2018-08-10T08:05:13.333Z,25.20
2018-08-10T08:07:41.904Z,25.30
2018-08-10T08:10:10.653Z,25.20
2018-08-10T08:12:39.223Z,25.20
2018-08-10T08:15:07.857Z,25.10
2018-08-10T08:17:37.253Z,24.90
2018-08-10T08:20:06.613Z,24.80
2018-08-10T08:22:35.169Z,24.80
2018-08-10T08:25:03.851Z,24.60
2018-08-10T08:27:32.444Z,24.50
2018-08-10T08:30:01.045Z,24.50
2018-08-10T08:32:29.866Z,24.50
2018-08-10T08:34:58.555Z,24.60
2018-08-10T08:37:27.101Z,24.80
2018-08-10T08:40:07.051Z,24.80
2018-08-10T08:42:35.626Z,25.00
2018-08-10T08:46:08.899Z,25.10
2018-08-10T08:48:40.535Z,25.20
2018-08-10T08:51:11.613Z,25.30
2018-08-10T08:53:40.236Z,25.30
2018-08-10T08:56:11.533Z,25.40
2018-08-10T08:58:40.997Z,25.40
2018-08-10T09:01:10.457Z,25.40
2018-08-10T09:04:21.076Z,25.40
2018-08-10T09:06:50.001Z,25.30
2018-08-10T09:09:29.680Z,25.20
2018-08-10T09:11:58.288Z,25.30
2018-08-10T09:14:49.897Z,25.30
2018-08-10T09:17:18.636Z,25.30
2018-08-10T09:19:47.609Z,25.40
2018-08-10T09:22:16.178Z,25.40
2018-08-10T09:24:44.849Z,25.50
2018-08-10T09:27:13.437Z,25.50
2018-08-10T09:29:42.043Z,25.60
2018-08-10T09:32:10.878Z,25.70
2018-08-10T09:34:39.444Z,25.70
2018-08-10T09:37:09.188Z,25.70
2018-08-10T09:39:37.981Z,25.70
2018-08-10T09:42:07.221Z,25.60
2018-08-10T09:44:36.202Z,25.70
2018-08-10T09:47:05.420Z,25.70
2018-08-10T09:49:43.825Z,25.70
2018-08-10T09:52:12.500Z,25.80
2018-08-10T09:55:32.913Z,26.00
2018-08-10T09:58:03.153Z,26.20
2018-08-10T10:00:37.655Z,26.30
2018-08-10T10:03:13.409Z,26.30
2018-08-10T10:05:42.463Z,26.40
2018-08-10T10:08:11.088Z,26.50
2018-08-10T10:10:39.629Z,26.50
2018-08-10T10:13:08.225Z,26.50
2018-08-10T10:15:36.825Z,26.60
2018-08-10T10:18:07.116Z,26.70
2018-08-10T10:20:35.631Z,26.70
2018-08-10T10:23:04.261Z,26.80
2018-08-10T10:25:32.803Z,26.70
2018-08-10T10:28:01.579Z,26.70
2018-08-10T10:30:30.204Z,26.70
2018-08-10T10:32:58.837Z,26.70
2018-08-10T10:35:27.545Z,26.80
2018-08-10T10:37:56.092Z,26.80
2018-08-10T10:40:24.685Z,27.00
2018-08-10T10:42:53.217Z,27.10
2018-08-10T10:45:21.964Z,27.20
2018-08-10T10:47:50.589Z,27.40
2018-08-10T10:50:19.842Z,27.50
2018-08-10T10:52:48.564Z,27.50
2018-08-10T10:55:17.117Z,27.60
2018-08-10T10:57:45.696Z,27.60
2018-08-10T11:00:16.553Z,27.70
2018-08-10T11:02:45.776Z,27.80
2018-08-10T11:05:14.389Z,27.90
2018-08-10T11:07:42.959Z,28.10
2018-08-10T11:10:12.657Z,28.20
2018-08-10T11:12:41.745Z,28.40
2018-08-10T11:15:11.422Z,28.50
2018-08-10T11:17:40.028Z,28.40
2018-08-10T11:20:10.180Z,28.30
2018-08-10T11:22:39.756Z,28.40
2018-08-10T11:25:09.636Z,28.50
2018-08-10T11:27:38.214Z,28.60
2018-08-10T11:30:08.373Z,28.60
2018-08-10T11:32:38.398Z,28.60
2018-08-10T11:35:07.646Z,28.40
2018-08-10T11:37:36.589Z,28.30
2018-08-10T11:40:09.744Z,28.30
2018-08-10T11:42:38.568Z,28.10
2018-08-10T11:45:09.498Z,28.10
2018-08-10T11:47:38.385Z,28.00
2018-08-10T11:50:07.386Z,28.10
2018-08-10T11:52:36.353Z,28.10
2018-08-10T11:55:05.595Z,28.10
2018-08-10T11:57:34.147Z,28.10
2018-08-10T12:00:03.072Z,28.10
2018-08-10T12:02:31.598Z,28.10
2018-08-10T12:05:00.184Z,28.10
2018-08-10T12:07:28.817Z,28.10
2018-08-10T12:09:57.325Z,28.20
2018-08-10T12:12:26.004Z,28.20
2018-08-10T12:14:55.306Z,28.20
2018-08-10T12:17:24.040Z,28.30
2018-08-10T12:19:52.653Z,28.20
2018-08-10T12:22:21.399Z,28.20
2018-08-10T12:24:50.172Z,28.30
2018-08-10T12:27:19.181Z,28.30
2018-08-10T12:29:47.772Z,28.40
2018-08-10T12:32:16.573Z,28.50
2018-08-10T12:34:45.240Z,28.50
2018-08-10T12:37:13.771Z,28.40
2018-08-10T12:39:42.313Z,28.40
2018-08-10T12:42:10.860Z,28.40
2018-08-10T12:44:39.429Z,28.50
2018-08-10T12:47:08.005Z,28.60
2018-08-10T12:49:36.564Z,28.60
2018-08-10T12:52:05.381Z,28.50
2018-08-10T12:54:34.021Z,28.50
2018-08-10T12:57:02.850Z,28.60
2018-08-10T12:59:31.407Z,28.60
2018-08-10T13:01:59.962Z,28.70
2018-08-10T13:04:28.684Z,28.60
2018-08-10T13:06:57.381Z,28.80
2018-08-10T13:09:25.927Z,28.90
2018-08-10T13:11:54.503Z,29.00
2018-08-10T13:14:23.134Z,29.40
2018-08-10T13:16:51.660Z,29.50
2018-08-10T13:19:20.233Z,29.70
2018-08-10T13:21:48.850Z,30.00
2018-08-10T13:24:17.357Z,30.60
2018-08-10T13:26:45.928Z,30.60
2018-08-10T13:29:14.572Z,32.10
2018-08-10T13:31:43.335Z,32.10
2018-08-10T13:34:11.924Z,31.60
2018-08-10T13:36:40.654Z,31.50
2018-08-10T13:39:11.276Z,31.00
2018-08-10T13:41:40.475Z,30.70
2018-08-10T13:44:09.627Z,30.70
2018-08-10T13:46:38.201Z,30.50
2018-08-10T13:49:06.787Z,30.40
2018-08-10T13:51:35.411Z,31.00
2018-08-10T13:54:04.139Z,30.50
2018-08-10T13:56:32.738Z,30.00
2018-08-10T13:59:01.248Z,29.90
2018-08-10T14:01:29.854Z,31.60
2018-08-10T14:03:58.591Z,33.20
2018-08-10T14:06:27.428Z,32.90
2018-08-10T14:08:55.954Z,34.60
2018-08-10T14:11:24.572Z,35.30
2018-08-10T14:13:53.277Z,34.40
2018-08-10T14:16:21.814Z,33.50
2018-08-10T14:18:50.459Z,32.90
2018-08-10T14:21:19.008Z,32.30
2018-08-10T14:23:47.576Z,31.70
2018-08-10T14:26:16.602Z,32.00
2018-08-10T14:28:45.244Z,31.90
2018-08-10T14:31:13.830Z,31.50
2018-08-10T14:33:42.409Z,31.10
2018-08-10T14:36:11.009Z,30.80
2018-08-10T14:38:39.633Z,30.80
2018-08-10T14:41:08.257Z,30.90
2018-08-10T14:43:36.826Z,30.70
2018-08-10T14:46:05.532Z,30.40
2018-08-10T14:48:34.044Z,30.00
2018-08-10T14:51:04.689Z,29.70
2018-08-10T14:53:33.249Z,29.60
2018-08-10T14:56:01.935Z,29.50
2018-08-10T14:58:30.603Z,29.30
2018-08-10T15:00:59.092Z,29.00
2018-08-10T15:03:27.715Z,28.90
2018-08-10T15:05:56.420Z,28.70
2018-08-10T15:08:25.013Z,28.60
2018-08-10T15:10:53.632Z,28.50
2018-08-10T15:13:22.220Z,28.30
2018-08-10T15:15:50.797Z,28.20
2018-08-10T15:18:19.765Z,28.20
2018-08-10T15:20:48.385Z,29.90
2018-08-10T15:23:45.994Z,31.40
2018-08-10T15:26:14.884Z,33.00
2018-08-10T15:28:43.447Z,33.70
2018-08-10T15:31:12.257Z,33.30
2018-08-10T15:33:41.069Z,33.80
2018-08-10T15:36:09.685Z,34.50
2018-08-10T15:38:38.217Z,34.60
2018-08-10T15:41:06.790Z,34.60
2018-08-10T15:43:35.387Z,35.10
2018-08-10T15:46:04.005Z,36.10
2018-08-10T15:48:32.604Z,36.80
2018-08-10T15:51:01.152Z,37.50
2018-08-10T15:53:30.348Z,38.00
2018-08-10T15:55:58.976Z,38.80
2018-08-10T15:58:27.487Z,40.00
2018-08-10T16:00:56.104Z,40.90
2018-08-10T16:03:24.697Z,41.80
2018-08-10T16:05:54.061Z,42.50
2018-08-10T16:08:22.609Z,43.10
2018-08-10T16:10:51.308Z,43.30
2018-08-10T16:13:19.833Z,41.40
2018-08-10T16:15:48.504Z,42.60
2018-08-10T16:18:17.045Z,42.30
2018-08-10T16:20:45.576Z,39.80
2018-08-10T16:23:14.250Z,38.00
2018-08-10T16:25:42.760Z,36.50
2018-08-10T16:28:11.389Z,35.20
2018-08-10T16:30:40.615Z,34.20
2018-08-10T16:33:09.245Z,33.40
2018-08-10T16:35:37.826Z,32.50
2018-08-10T16:38:06.411Z,31.90
2018-08-10T16:40:35.255Z,31.40
2018-08-10T16:43:03.918Z,31.00
2018-08-10T16:45:32.524Z,30.60
2018-08-10T16:48:01.318Z,30.10
2018-08-10T16:50:30.871Z,29.90
2018-08-10T16:52:59.475Z,29.60
2018-08-10T16:55:28.250Z,29.50
2018-08-10T16:57:56.920Z,29.40
2018-08-10T17:00:25.474Z,29.20
2018-08-10T17:02:54.212Z,29.10
2018-08-10T17:05:22.797Z,28.90
2018-08-10T17:07:51.532Z,28.80
2018-08-10T17:10:20.073Z,28.60
2018-08-10T17:12:48.823Z,28.40
2018-08-10T17:15:19.445Z,28.30
2018-08-10T17:17:48.745Z,28.10
2018-08-10T17:20:18.434Z,27.80
2018-08-10T17:22:47.359Z,27.70
2018-08-10T17:25:18.384Z,27.50
2018-08-10T17:27:47.382Z,27.40
2018-08-10T17:30:17.678Z,27.30
2018-08-10T17:32:46.436Z,27.20
2018-08-10T17:35:16.080Z,27.10
2018-08-10T17:37:45.868Z,27.00
2018-08-10T17:40:15.066Z,26.80
2018-08-10T17:42:43.663Z,26.70
2018-08-10T17:45:15.334Z,26.60
2018-08-10T17:47:44.640Z,26.50
2018-08-10T17:50:16.592Z,26.40
2018-08-10T17:52:46.956Z,26.30
2018-08-10T17:55:16.330Z,26.20
2018-08-10T17:57:46.154Z,26.20
2018-08-10T18:00:17.801Z,26.20
2018-08-10T18:02:47.074Z,26.10
2018-08-10T18:05:16.801Z,26.10
2018-08-10T18:07:45.695Z,26.00
2018-08-10T18:10:15.141Z,26.00
2018-08-10T18:12:44.699Z,25.90
2018-08-10T18:15:15.705Z,25.90
2018-08-10T18:17:44.866Z,25.90
2018-08-10T18:20:15.580Z,25.70
2018-08-10T18:22:46.001Z,25.70
2018-08-10T18:25:15.812Z,25.70
2018-08-10T18:27:45.325Z,25.60
2018-08-10T18:30:17.510Z,25.60
2018-08-10T18:32:46.763Z,25.60
2018-08-10T18:35:15.367Z,25.50
2018-08-10T18:37:44.572Z,25.40
2018-08-10T18:40:15.001Z,25.40
2018-08-10T18:42:44.836Z,25.40
2018-08-10T18:45:15.155Z,25.40
2018-08-10T18:47:43.942Z,25.40
2018-08-10T18:50:13.832Z,25.40
2018-08-10T18:52:43.629Z,25.40
2018-08-10T18:55:15.123Z,25.30
2018-08-10T18:57:43.740Z,25.30
2018-08-10T19:00:16.797Z,25.30
2018-08-10T19:02:46.576Z,25.20
2018-08-10T19:05:16.292Z,25.20
2018-08-10T19:07:46.117Z,25.10
2018-08-10T19:10:18.450Z,25.10
2018-08-10T19:12:47.180Z,25.10
2018-08-10T19:15:16.108Z,25.00
2018-08-10T19:17:44.961Z,24.90
2018-08-10T19:20:14.383Z,24.80
2018-08-10T19:22:42.990Z,24.80
2018-08-10T19:25:13.686Z,24.70
2018-08-10T19:27:42.257Z,24.60
2018-08-10T19:30:16.529Z,24.60
2018-08-10T19:32:46.399Z,24.50
2018-08-10T19:35:15.478Z,24.40
2018-08-10T19:37:44.296Z,24.40
2018-08-10T19:40:14.331Z,24.40
2018-08-10T19:42:44.091Z,24.40
2018-08-10T19:45:13.777Z,24.30
2018-08-10T19:47:42.482Z,24.30
2018-08-10T19:50:12.788Z,24.30
2018-08-10T19:52:41.719Z,24.30
2018-08-10T19:55:12.248Z,24.20
2018-08-10T19:57:41.240Z,24.20
2018-08-10T20:00:11.632Z,24.20
2018-08-10T20:02:40.198Z,24.10
2018-08-10T20:05:09.795Z,24.10
2018-08-10T20:07:38.896Z,24.00
2018-08-10T20:10:09.335Z,24.00
2018-08-10T20:12:38.256Z,23.90
2018-08-10T20:15:09.037Z,23.90
2018-08-10T20:17:37.605Z,23.90
2018-08-10T20:20:07.383Z,23.90
2018-08-10T20:22:36.097Z,23.90
2018-08-10T20:25:05.098Z,23.80
2018-08-10T20:27:34.365Z,23.80
2018-08-10T20:30:02.950Z,23.80
2018-08-10T20:32:31.470Z,23.80
2018-08-10T20:35:00.119Z,23.80
2018-08-10T20:37:28.742Z,23.70
2018-08-10T20:39:57.504Z,23.70
2018-08-10T20:42:26.176Z,23.70
2018-08-10T20:44:54.876Z,23.60
2018-08-10T20:47:23.610Z,23.60
2018-08-10T20:49:52.206Z,23.60
2018-08-10T20:52:20.814Z,23.50
2018-08-10T20:54:49.330Z,23.50
2018-08-10T20:57:18.041Z,23.40
2018-08-10T20:59:46.992Z,23.30
2018-08-10T21:02:16.357Z,23.20
2018-08-10T21:04:44.908Z,23.10
2018-08-10T21:07:13.620Z,23.10
2018-08-10T21:09:42.273Z,23.00
2018-08-10T21:12:10.892Z,22.90
2018-08-10T21:14:39.485Z,22.80
2018-08-10T21:17:08.345Z,22.80
2018-08-10T21:19:37.080Z,22.80
2018-08-10T21:22:05.705Z,22.80
2018-08-10T21:24:34.426Z,22.80
2018-08-10T21:27:03.110Z,22.80
2018-08-10T21:29:32.330Z,22.70
2018-08-10T21:32:00.960Z,22.60
2018-08-10T21:34:29.703Z,22.60
2018-08-10T21:36:58.343Z,22.60
2018-08-10T21:39:27.133Z,22.50
2018-08-10T21:41:55.817Z,22.50
2018-08-10T21:44:24.508Z,22.50
2018-08-10T21:46:53.260Z,22.40
2018-08-10T21:49:21.813Z,22.30
2018-08-10T21:51:50.445Z,22.30
2018-08-10T21:54:18.943Z,22.30
2018-08-10T21:56:47.525Z,22.20
2018-08-10T21:59:32.530Z,22.10
2018-08-10T22:02:01.465Z,22.10
2018-08-10T22:04:30.802Z,21.90
2018-08-10T22:06:59.666Z,21.90
2018-08-10T22:09:28.189Z,21.80
2018-08-10T22:11:56.809Z,21.80
2018-08-10T22:14:31.507Z,21.80
2018-08-10T22:19:10.866Z,21.80
2018-08-10T22:21:39.441Z,21.80
2018-08-10T22:24:08.005Z,21.70
2018-08-10T22:26:36.616Z,21.70
2018-08-10T22:29:05.287Z,21.60
2018-08-10T22:31:34.037Z,21.60
2018-08-10T22:34:02.978Z,21.50
2018-08-10T22:36:31.567Z,21.40
2018-08-10T22:39:00.140Z,21.40
2018-08-10T22:41:28.711Z,21.30
2018-08-10T22:43:58.032Z,21.40
2018-08-10T22:46:26.657Z,21.40
2018-08-10T22:48:55.190Z,21.40
2018-08-10T22:51:23.757Z,21.50
2018-08-10T22:53:52.313Z,21.50
2018-08-10T22:56:20.909Z,21.50
2018-08-10T22:58:49.632Z,21.50
2018-08-10T23:01:18.290Z,21.50
2018-08-10T23:03:46.815Z,21.50
2018-08-10T23:06:15.691Z,21.50
2018-08-10T23:08:44.429Z,21.50
2018-08-10T23:11:12.888Z,21.50
2018-08-10T23:13:41.660Z,21.40
2018-08-10T23:16:10.255Z,21.40
2018-08-10T23:18:38.876Z,21.40
2018-08-10T23:21:07.730Z,21.30
2018-08-10T23:23:36.312Z,21.20
2018-08-10T23:26:04.900Z,21.10
2018-08-10T23:28:33.477Z,21.10
2018-08-10T23:31:02.090Z,21.00
2018-08-10T23:33:30.594Z,20.90
2018-08-10T23:35:59.310Z,20.90
2018-08-10T23:38:27.875Z,20.90
2018-08-10T23:40:56.489Z,20.90
2018-08-10T23:43:25.608Z,20.90
2018-08-10T23:45:54.257Z,20.90
2018-08-10T23:48:22.764Z,20.90
2018-08-10T23:50:51.367Z,20.80
2018-08-10T23:53:19.924Z,20.80
2018-08-10T23:55:48.539Z,20.80
2018-08-10T23:58:17.295Z,20.70
